White Point — IBAE — position and weather

sailwx.info

Track history (hours):
 
Tides and Currents Weather Stations Pressure Air Temp Water Temp Dewpoint Dewpoint Depression Visibility Wind Speed Wind Dir Waves Ship Positions

White Point

Last reported at 2017-May-23 12:28 UTC. Time now 2017-May-23 12:37 UTC.
Position N 40°28' E 017°12'.

Length 183 m; draft 1.1 m.

Type: Ship (hazmat cat D). MMSI: 247087400.

Date/timePositionNaut miles runAvg speedWind from/ knotsBaromVisibWave heightAir tempDewpointWater temp
2017-May-23 12:28N 40°28' E 017°12'0 0.1
2017-May-23 11:58N 40°28' E 017°12'0 0.0
2017-May-23 11:25N 40°28' E 017°12'0 0.0
2017-May-23 10:58N 40°28' E 017°12'0 0.0
2017-May-23 10:28N 40°28' E 017°12'0 0.0
2017-May-23 09:55N 40°28' E 017°12'0 0.0
2017-May-23 09:28N 40°28' E 017°12'0 0.0
2017-May-23 08:58N 40°28' E 017°12'0 0.0
2017-May-23 08:25N 40°28' E 017°12'0 0.1
2017-May-23 07:55N 40°28' E 017°12'0 0.1
2017-May-23 07:28N 40°28' E 017°12'0 0.1
2017-May-23 06:55N 40°28' E 017°12'0 0.0
2017-May-23 06:28N 40°28' E 017°12'0 0.0
2017-May-23 05:58N 40°28' E 017°12'0 0.0
2017-May-23 05:28N 40°28' E 017°12'0 0.0
2017-May-23 04:55N 40°28' E 017°12'0 0.0
2017-May-23 04:28N 40°28' E 017°12'0 0.0
2017-May-23 03:55N 40°28' E 017°12'0 0.0
2017-May-23 03:28N 40°28' E 017°12'0 0.0
2017-May-23 02:58N 40°28' E 017°12'0 0.0
2017-May-23 02:28N 40°28' E 017°12'0 0.0
2017-May-23 01:58N 40°28' E 017°12'0 0.0
2017-May-23 01:28N 40°28' E 017°12'0 0.0
2017-May-23 00:55N 40°28' E 017°12'0 0.1
2017-May-23 00:28N 40°28' E 017°12'0 0.1
2017-May-22 23:58N 40°28' E 017°12'0 0.0
2017-May-22 23:28N 40°28' E 017°12'0 0.1
2017-May-22 22:58N 40°28' E 017°12'0 0.1
2017-May-22 22:25N 40°28' E 017°12'0 0.1
2017-May-22 21:58N 40°28' E 017°12'0 0.0
2017-May-22 21:28N 40°28' E 017°12'0 0.1
2017-May-22 20:58N 40°28' E 017°12'0 0.1
2017-May-22 20:28N 40°28' E 017°12'0 0.0
2017-May-22 19:58N 40°28' E 017°12'0 0.0
2017-May-22 19:25N 40°28' E 017°12'0 0.0
2017-May-22 18:58N 40°28' E 017°12'0 0.1
2017-May-22 18:28N 40°28' E 017°12'0 0.1
2017-May-22 17:58N 40°28' E 017°12'0 0.0
2017-May-22 17:28N 40°28' E 017°12'0 0.0
2017-May-22 16:55N 40°28' E 017°12'0 0.0
2017-May-22 16:28N 40°28' E 017°12'0 0.0
2017-May-22 15:58N 40°28' E 017°12'0 0.0
2017-May-22 15:28N 40°28' E 017°12'0 0.1
2017-May-22 14:58N 40°28' E 017°12'4 4.4
2017-May-22 14:00N 40°24' E 017°09'4 7.7
2017-May-22 13:30N 40°21' E 017°12'611.9
2017-May-22 12:59N 40°17' E 017°18'612.0
2017-May-22 12:28N 40°13' E 017°24'512.1
2017-May-22 12:00N 40°09' E 017°29'253 9.1
2017-May-21 08:15N 43°34' E 014°10'312.5
2017-May-21 08:00N 43°37' E 014°08'612.8
2017-May-21 07:30N 43°42' E 014°02'612.8
2017-May-21 07:00N 43°47' E 013°57'612.7
2017-May-21 06:30N 43°51' E 013°50'712.7
2017-May-21 05:59N 43°55' E 013°43'612.7
2017-May-21 05:30N 43°58' E 013°36'612.6
2017-May-21 05:00N 44°02' E 013°29'812.7
2017-May-21 04:23N 44°07' E 013°20'512.8
2017-May-21 04:00N 44°10' E 013°15'612.9
2017-May-21 03:30N 44°14' E 013°07'712.8
2017-May-21 02:59N 44°17' E 012°59'912.7
2017-May-21 02:15N 44°22' E 012°49'312.6
2017-May-21 01:58N 44°24' E 012°44'612.4
2017-May-21 01:30N 44°27' E 012°37'612.4
2017-May-21 01:00N 44°29' E 012°29'3 0.3
2017-May-20 13:23N 44°31' E 012°32'512.8
2017-May-20 13:00N 44°35' E 012°34'612.9
2017-May-20 12:30N 44°42' E 012°36'612.7
2017-May-20 12:00N 44°48' E 012°39'612.3
2017-May-20 11:30N 44°54' E 012°40'612.3
2017-May-20 11:00N 44°60' E 012°40'612.5
2017-May-20 10:30N 45°06' E 012°40'611.5
2017-May-20 10:00N 45°10' E 012°34'612.0
2017-May-20 09:30N 45°15' E 012°29'612.5
2017-May-20 09:00N 45°19' E 012°23'510.4
2017-May-20 08:30N 45°21' E 012°16'4 8.9
2017-May-20 08:00N 45°25' E 012°16'2 1.9
2017-May-20 07:11N 45°26' E 012°14'0 0.0
2017-May-20 06:56N 45°26' E 012°14'0 0.0
2017-May-20 06:26N 45°26' E 012°14'0 0.0
2017-May-20 05:59N 45°26' E 012°14'0 0.0
2017-May-20 05:29N 45°26' E 012°14'0 0.0
2017-May-20 04:59N 45°26' E 012°14'0 0.0
2017-May-20 04:29N 45°26' E 012°14'0 0.0
2017-May-20 03:56N 45°26' E 012°14'0 0.0
2017-May-20 03:29N 45°26' E 012°14'0 0.0
2017-May-20 02:53N 45°26' E 012°14'0 0.0
2017-May-20 02:29N 45°26' E 012°14'0 0.0
2017-May-20 01:59N 45°26' E 012°14'0 0.0
2017-May-20 01:29N 45°26' E 012°14'0 0.0
2017-May-20 00:53N 45°26' E 012°14'0 0.0
2017-May-20 00:29N 45°26' E 012°14'0 0.0
2017-May-19 23:59N 45°26' E 012°14'0 0.0
2017-May-19 23:29N 45°26' E 012°14'0 0.0
2017-May-19 22:56N 45°26' E 012°14'0 0.0
2017-May-19 22:29N 45°26' E 012°14'0 0.0
2017-May-19 21:59N 45°26' E 012°14'0 0.0
2017-May-19 21:20N 45°26' E 012°14'0 0.0
2017-May-19 20:56N 45°26' E 012°14'0 0.0
2017-May-19 20:29N 45°26' E 012°14'0 0.0
2017-May-19 19:56N 45°26' E 012°14'0 0.0
2017-May-19 19:26N 45°26' E 012°14'0 0.0
2017-May-19 18:59N 45°26' E 012°14'0 0.0
2017-May-19 18:29N 45°26' E 012°14'0 0.0
2017-May-19 17:59N 45°26' E 012°14'0 0.0
2017-May-19 17:29N 45°26' E 012°14'0 0.0
2017-May-19 16:59N 45°26' E 012°14'0 0.0
2017-May-19 16:23N 45°26' E 012°14'0 0.7
2017-May-19 16:00N 45°26' E 012°13'2 3.1
2017-May-19 15:31N 45°26' E 012°16'1 2.3
2017-May-19 14:58N 45°27' E 012°16'0 0.0
2017-May-19 13:58N 45°27' E 012°16'0 0.0
2017-May-19 13:25N 45°27' E 012°16'0 0.0
2017-May-19 12:49N 45°27' E 012°16'0 0.0
2017-May-19 12:28N 45°27' E 012°16'0 0.0
2017-May-19 11:58N 45°27' E 012°16'0 0.0
2017-May-19 11:28N 45°27' E 012°16'0 0.0
2017-May-19 10:55N 45°27' E 012°16'0 0.0
2017-May-19 10:28N 45°27' E 012°16'0 0.0
2017-May-19 09:58N 45°27' E 012°16'0 0.0
2017-May-19 09:25N 45°27' E 012°16'0 0.0
2017-May-19 08:58N 45°27' E 012°16'0 0.0
2017-May-19 08:28N 45°27' E 012°16'0 0.0
2017-May-19 07:58N 45°27' E 012°16'0 0.0
2017-May-19 07:28N 45°27' E 012°16'0 0.0
2017-May-19 06:58N 45°27' E 012°16'0 0.0
2017-May-19 06:25N 45°27' E 012°16'0 0.0
2017-May-19 05:58N 45°27' E 012°16'0 0.0
2017-May-19 05:25N 45°27' E 012°16'0 0.0
2017-May-19 04:58N 45°27' E 012°16'0 0.0
2017-May-19 04:25N 45°27' E 012°16'0 0.0
2017-May-19 03:58N 45°27' E 012°16'0 0.0
2017-May-19 03:28N 45°27' E 012°16'0 0.0
2017-May-19 02:58N 45°27' E 012°16'0 0.0
2017-May-19 02:28N 45°27' E 012°16'0 0.0
2017-May-19 01:52N 45°27' E 012°16'0 0.0
2017-May-19 01:25N 45°27' E 012°16'0 0.0
2017-May-19 00:58N 45°27' E 012°16'0 0.0
2017-May-19 00:28N 45°27' E 012°16'0 0.0
2017-May-18 23:58N 45°27' E 012°16'0 0.0
2017-May-18 23:28N 45°27' E 012°16'0 0.0
2017-May-18 22:58N 45°27' E 012°16'0 0.0
2017-May-18 22:28N 45°27' E 012°16'0 0.0
2017-May-18 21:58N 45°27' E 012°16'0 0.0
2017-May-18 21:28N 45°27' E 012°16'0 0.0
2017-May-18 20:58N 45°27' E 012°16'0 0.0
2017-May-18 20:28N 45°27' E 012°16'0 0.0
2017-May-18 19:58N 45°27' E 012°16'0 0.0
2017-May-18 19:28N 45°27' E 012°16'0 0.0
2017-May-18 18:55N 45°27' E 012°16'0 0.0
2017-May-18 18:28N 45°27' E 012°16'0 0.0
2017-May-18 17:55N 45°27' E 012°16'0 0.0
2017-May-18 17:28N 45°27' E 012°16'0 0.0
2017-May-18 16:55N 45°27' E 012°16'0 0.0
2017-May-18 16:25N 45°27' E 012°16'0 0.0
2017-May-18 15:58N 45°27' E 012°16'0 0.0
2017-May-18 15:22N 45°27' E 012°16'0 0.0
2017-May-18 14:58N 45°27' E 012°16'0 0.0
2017-May-18 13:58N 45°27' E 012°16'0 0.0
2017-May-18 13:28N 45°27' E 012°16'0 0.0
2017-May-18 12:58N 45°27' E 012°16'0 0.0
2017-May-18 12:28N 45°27' E 012°16'0 0.0
2017-May-18 11:58N 45°27' E 012°16'0 0.0
2017-May-18 11:28N 45°27' E 012°16'0 0.0
2017-May-18 10:58N 45°27' E 012°16'0 0.0
2017-May-18 10:25N 45°27' E 012°16'0 0.0
2017-May-18 09:58N 45°27' E 012°16'0 0.0
2017-May-18 09:28N 45°27' E 012°16'0 0.0
2017-May-18 08:58N 45°27' E 012°16'0 0.0
2017-May-18 08:25N 45°27' E 012°16'0 0.0
2017-May-18 07:55N 45°27' E 012°16'0 0.0
2017-May-18 07:28N 45°27' E 012°16'0 0.0
2017-May-18 06:58N 45°27' E 012°16'0 0.0
2017-May-18 06:10N 45°27' E 012°16'0 0.0
2017-May-18 05:58N 45°27' E 012°16'0 0.0
2017-May-18 05:25N 45°27' E 012°16'0 0.0
2017-May-18 04:55N 45°27' E 012°16'0 0.0
2017-May-18 04:28N 45°27' E 012°16'0 0.0
2017-May-18 03:55N 45°27' E 012°16'0 0.0
2017-May-18 03:28N 45°27' E 012°16'0 0.0
2017-May-18 02:58N 45°27' E 012°16'0 0.0
2017-May-18 02:28N 45°27' E 012°16'0 0.0
2017-May-18 01:58N 45°27' E 012°16'0 0.0
2017-May-18 01:28N 45°27' E 012°16'0 0.0
2017-May-18 00:58N 45°27' E 012°16'0 0.0
2017-May-18 00:25N 45°27' E 012°16'0 0.0
2017-May-17 23:58N 45°27' E 012°16'0 0.0
2017-May-17 23:28N 45°27' E 012°16'0 0.0
2017-May-17 22:58N 45°27' E 012°16'0 0.0
2017-May-17 22:28N 45°27' E 012°16'0 0.0
2017-May-17 21:58N 45°27' E 012°16'0 0.0
2017-May-17 21:28N 45°27' E 012°16'0 0.0
2017-May-17 20:58N 45°27' E 012°16'0 0.0
2017-May-17 20:28N 45°27' E 012°16'0 0.0
2017-May-17 19:58N 45°27' E 012°16'0 0.0
2017-May-17 19:28N 45°27' E 012°16'0 0.0
2017-May-17 18:58N 45°27' E 012°16'0 0.0
2017-May-17 18:25N 45°27' E 012°16'0 0.0
2017-May-17 17:58N 45°27' E 012°16'0 0.0
2017-May-17 17:28N 45°27' E 012°16'0 0.0
2017-May-17 16:55N 45°27' E 012°16'0 0.0
2017-May-17 16:28N 45°27' E 012°16'0 0.0
2017-May-17 15:58N 45°27' E 012°16'0 0.0
2017-May-17 15:28N 45°27' E 012°16'0 0.0
2017-May-17 14:58N 45°27' E 012°16'4 4.0
2017-May-17 14:00N 45°24' E 012°16'4 7.9
2017-May-17 13:30N 45°20' E 012°19'3 6.4
2017-May-17 13:00N 45°20' E 012°23'1 1.3
2017-May-17 12:30N 45°20' E 012°24'0 0.1
2017-May-17 12:00N 45°20' E 012°24'0 0.0
2017-May-17 11:30N 45°20' E 012°24'0 0.0
2017-May-17 11:00N 45°20' E 012°24'0 0.0
2017-May-17 10:30N 45°20' E 012°24'0 0.0
2017-May-17 10:00N 45°20' E 012°24'0 0.0
2017-May-17 09:30N 45°20' E 012°24'0 0.0
2017-May-17 09:00N 45°20' E 012°24'0 0.0
2017-May-17 08:30N 45°20' E 012°24'0 0.0
2017-May-17 08:00N 45°20' E 012°24'0 0.0
2017-May-17 07:30N 45°20' E 012°24'0 0.0
2017-May-17 07:00N 45°20' E 012°24'0 0.0
2017-May-17 06:30N 45°20' E 012°24'0 0.2
2017-May-17 06:00N 45°20' E 012°24'0 0.1
2017-May-17 05:30N 45°20' E 012°24'0 0.1
2017-May-17 05:00N 45°20' E 012°24'0 0.1
2017-May-17 04:30N 45°20' E 012°24'0 0.0
2017-May-17 04:00N 45°20' E 012°24'0 0.0
2017-May-17 03:30N 45°20' E 012°24'0 0.0
2017-May-17 03:00N 45°20' E 012°24'0 0.0
2017-May-17 02:30N 45°20' E 012°24'0 0.0
2017-May-17 02:01N 45°20' E 012°24'0 0.0
2017-May-17 01:30N 45°20' E 012°24'0 0.0
2017-May-17 01:00N 45°20' E 012°24'0 0.0
2017-May-17 00:30N 45°20' E 012°24'0 0.0
2017-May-17 00:00N 45°20' E 012°24'0 0.0
2017-May-16 23:30N 45°20' E 012°24'0 0.1
2017-May-16 23:00N 45°20' E 012°24'0 0.1
2017-May-16 22:30N 45°20' E 012°24'0 0.0
2017-May-16 22:00N 45°20' E 012°24'0 0.0
2017-May-16 21:31N 45°20' E 012°24'0 0.0
2017-May-16 21:00N 45°20' E 012°24'0 0.0
2017-May-16 20:30N 45°20' E 012°24'0 0.0
2017-May-16 20:00N 45°20' E 012°24'0 0.0
2017-May-16 19:30N 45°20' E 012°24'0 0.0
2017-May-16 19:01N 45°20' E 012°24'0 0.0
2017-May-16 18:30N 45°20' E 012°24'0 0.0
2017-May-16 18:00N 45°20' E 012°24'0 0.1
2017-May-16 17:31N 45°20' E 012°24'0 0.0
2017-May-16 17:00N 45°20' E 012°24'0 0.0
2017-May-16 16:30N 45°20' E 012°24'0 0.0
2017-May-16 16:00N 45°20' E 012°24'0 0.0
2017-May-16 15:30N 45°20' E 012°24'0 0.1
2017-May-16 15:00N 45°20' E 012°24'0 0.0
2017-May-16 14:30N 45°20' E 012°24'0 0.0
2017-May-16 13:30N 45°20' E 012°24'0 0.1
2017-May-16 13:00N 45°20' E 012°24'0 0.0
2017-May-16 12:30N 45°20' E 012°24'0 0.0
2017-May-16 12:00N 45°20' E 012°24'0 0.0
2017-May-16 11:30N 45°20' E 012°24'0 0.0
2017-May-16 11:00N 45°20' E 012°24'0 0.0
2017-May-16 10:30N 45°20' E 012°24'0 0.0
2017-May-16 10:00N 45°20' E 012°24'0 0.1
2017-May-16 09:30N 45°20' E 012°24'0 0.0
2017-May-16 09:00N 45°20' E 012°24'0 0.0
2017-May-16 08:30N 45°20' E 012°24'0 0.0
2017-May-16 08:00N 45°20' E 012°24'0 0.0
2017-May-16 07:30N 45°20' E 012°24'0 0.0
2017-May-16 07:00N 45°20' E 012°24'0 0.0
2017-May-16 06:30N 45°20' E 012°24'0 0.0
2017-May-16 06:00N 45°20' E 012°24'0 0.0
2017-May-16 05:30N 45°20' E 012°24'0 0.0
2017-May-16 05:00N 45°20' E 012°24'0 0.0
2017-May-16 04:30N 45°20' E 012°24'0 0.0
2017-May-16 04:00N 45°20' E 012°24'0 0.0
2017-May-16 03:30N 45°20' E 012°24'0 0.0
2017-May-16 03:00N 45°20' E 012°24'0 0.1
2017-May-16 02:30N 45°20' E 012°24'0 0.0
2017-May-16 02:01N 45°20' E 012°24'0 0.0
2017-May-16 01:30N 45°20' E 012°24'0 0.0
2017-May-16 01:00N 45°20' E 012°24'0 0.0
2017-May-16 00:30N 45°20' E 012°24'0 0.0
2017-May-16 00:00N 45°20' E 012°24'0 0.1
2017-May-15 23:30N 45°20' E 012°24'0 0.0
2017-May-15 23:00N 45°20' E 012°24'0 0.0
2017-May-15 22:30N 45°20' E 012°24'0 0.0
2017-May-15 22:00N 45°20' E 012°24'0 0.0
2017-May-15 21:30N 45°20' E 012°24'0 0.0
2017-May-15 21:00N 45°20' E 012°24'0 0.0
2017-May-15 20:30N 45°20' E 012°24'0 0.0
2017-May-15 20:00N 45°20' E 012°24'0 0.0
2017-May-15 19:30N 45°20' E 012°24'0 0.0
2017-May-15 19:01N 45°20' E 012°24'0 0.0
2017-May-15 18:30N 45°20' E 012°24'0 0.0
2017-May-15 18:00N 45°20' E 012°24'0 0.1
2017-May-15 17:30N 45°20' E 012°24'0 0.0
2017-May-15 17:00N 45°20' E 012°24'0 0.0
2017-May-15 16:30N 45°20' E 012°24'0 0.0
2017-May-15 16:00N 45°20' E 012°24'0 0.0
2017-May-15 15:30N 45°20' E 012°24'0 0.1
2017-May-15 15:00N 45°20' E 012°24'0 0.1
2017-May-15 14:00N 45°20' E 012°24'0 0.0
2017-May-15 13:30N 45°20' E 012°24'0 0.0
2017-May-15 13:00N 45°20' E 012°24'0 0.0
2017-May-15 12:30N 45°20' E 012°24'0 0.0
2017-May-15 12:00N 45°20' E 012°24'0 0.0
2017-May-15 11:30N 45°20' E 012°24'0 0.0
2017-May-15 11:00N 45°20' E 012°24'0 0.0
2017-May-15 10:30N 45°20' E 012°24'0 0.0
2017-May-15 10:00N 45°20' E 012°24'0 0.0
2017-May-15 09:30N 45°20' E 012°24'0 0.0
2017-May-15 09:00N 45°20' E 012°24'0 0.0
2017-May-15 08:30N 45°20' E 012°24'0 0.0
2017-May-15 08:00N 45°20' E 012°24'0 0.0
2017-May-15 07:30N 45°20' E 012°24'0 0.0
2017-May-15 07:00N 45°20' E 012°24'0 0.1
2017-May-15 06:30N 45°20' E 012°24'0 0.0
2017-May-15 06:00N 45°20' E 012°24'0 0.0
2017-May-15 05:29N 45°20' E 012°24'0 0.1
2017-May-15 05:00N 45°20' E 012°24'0 0.1
2017-May-15 04:30N 45°20' E 012°24'0 0.0
2017-May-15 04:00N 45°20' E 012°24'0 0.0
2017-May-15 03:30N 45°20' E 012°24'0 0.0
2017-May-15 02:50N 45°20' E 012°24'0 0.0
2017-May-15 02:30N 45°20' E 012°24'0 0.0
2017-May-15 02:00N 45°20' E 012°24'0 0.0
2017-May-15 01:30N 45°20' E 012°24'0 0.0
2017-May-15 01:00N 45°20' E 012°24'0 0.0
2017-May-15 00:30N 45°20' E 012°24'0 0.0
2017-May-15 00:00N 45°20' E 012°24'0 0.1
2017-May-14 23:30N 45°20' E 012°24'0 0.1
2017-May-14 23:00N 45°20' E 012°24'0 0.0
2017-May-14 22:30N 45°20' E 012°24'0 0.0
2017-May-14 22:00N 45°20' E 012°24'1 1.4
2017-May-14 21:30N 45°20' E 012°25'611.2
2017-May-14 21:00N 45°16' E 012°32'612.8
2017-May-14 20:30N 45°12' E 012°39'612.7
2017-May-14 20:00N 45°08' E 012°46'612.8
2017-May-14 19:30N 45°03' E 012°50'713.1
2017-May-14 19:00N 44°56' E 012°51'612.4
2017-May-14 18:31N 44°50' E 012°49'612.8
2017-May-14 18:00N 44°45' E 012°44'612.9
2017-May-14 17:31N 44°39' E 012°39'1212.8
2017-May-14 16:34N 44°30' E 012°29'312.5
2017-May-14 16:20N 44°30' E 012°25'411.7
2017-May-14 15:59N 44°30' E 012°19'  
Track history (hours):
 
Tides and Currents Weather Stations Pressure Air Temp Water Temp Dewpoint Dewpoint Depression Visibility Wind Speed Wind Dir Waves Ship Positions

White Point

Last reported at 2017-May-23 12:28 UTC. Time now 2017-May-23 12:37 UTC.
Position N 40°28' E 017°12'.

Length 183 m; draft 1.1 m.

Type: Ship (hazmat cat D). MMSI: 247087400.

Date/timePositionNaut miles runAvg speedWind from/ knotsBaromVisibWave heightAir tempDewpointWater temp
2017-May-23 12:28N 40°28' E 017°12'0 0.1
2017-May-23 11:58N 40°28' E 017°12'0 0.0
2017-May-23 11:25N 40°28' E 017°12'0 0.0
2017-May-23 10:58N 40°28' E 017°12'0 0.0
2017-May-23 10:28N 40°28' E 017°12'0 0.0
2017-May-23 09:55N 40°28' E 017°12'0 0.0
2017-May-23 09:28N 40°28' E 017°12'0 0.0
2017-May-23 08:58N 40°28' E 017°12'0 0.0
2017-May-23 08:25N 40°28' E 017°12'0 0.1
2017-May-23 07:55N 40°28' E 017°12'0 0.1
2017-May-23 07:28N 40°28' E 017°12'0 0.1
2017-May-23 06:55N 40°28' E 017°12'0 0.0
2017-May-23 06:28N 40°28' E 017°12'0 0.0
2017-May-23 05:58N 40°28' E 017°12'0 0.0
2017-May-23 05:28N 40°28' E 017°12'0 0.0
2017-May-23 04:55N 40°28' E 017°12'0 0.0
2017-May-23 04:28N 40°28' E 017°12'0 0.0
2017-May-23 03:55N 40°28' E 017°12'0 0.0
2017-May-23 03:28N 40°28' E 017°12'0 0.0
2017-May-23 02:58N 40°28' E 017°12'0 0.0
2017-May-23 02:28N 40°28' E 017°12'0 0.0
2017-May-23 01:58N 40°28' E 017°12'0 0.0
2017-May-23 01:28N 40°28' E 017°12'0 0.0
2017-May-23 00:55N 40°28' E 017°12'0 0.1
2017-May-23 00:28N 40°28' E 017°12'0 0.1
2017-May-22 23:58N 40°28' E 017°12'0 0.0
2017-May-22 23:28N 40°28' E 017°12'0 0.1
2017-May-22 22:58N 40°28' E 017°12'0 0.1
2017-May-22 22:25N 40°28' E 017°12'0 0.1
2017-May-22 21:58N 40°28' E 017°12'0 0.0
2017-May-22 21:28N 40°28' E 017°12'0 0.1
2017-May-22 20:58N 40°28' E 017°12'0 0.1
2017-May-22 20:28N 40°28' E 017°12'0 0.0
2017-May-22 19:58N 40°28' E 017°12'0 0.0
2017-May-22 19:25N 40°28' E 017°12'0 0.0
2017-May-22 18:58N 40°28' E 017°12'0 0.1
2017-May-22 18:28N 40°28' E 017°12'0 0.1
2017-May-22 17:58N 40°28' E 017°12'0 0.0
2017-May-22 17:28N 40°28' E 017°12'0 0.0
2017-May-22 16:55N 40°28' E 017°12'0 0.0
2017-May-22 16:28N 40°28' E 017°12'0 0.0
2017-May-22 15:58N 40°28' E 017°12'0 0.0
2017-May-22 15:28N 40°28' E 017°12'0 0.1
2017-May-22 14:58N 40°28' E 017°12'4 4.4
2017-May-22 14:00N 40°24' E 017°09'4 7.7
2017-May-22 13:30N 40°21' E 017°12'611.9
2017-May-22 12:59N 40°17' E 017°18'612.0
2017-May-22 12:28N 40°13' E 017°24'512.1
2017-May-22 12:00N 40°09' E 017°29'253 9.1
2017-May-21 08:15N 43°34' E 014°10'312.5
2017-May-21 08:00N 43°37' E 014°08'612.8
2017-May-21 07:30N 43°42' E 014°02'612.8
2017-May-21 07:00N 43°47' E 013°57'612.7
2017-May-21 06:30N 43°51' E 013°50'712.7
2017-May-21 05:59N 43°55' E 013°43'612.7
2017-May-21 05:30N 43°58' E 013°36'612.6
2017-May-21 05:00N 44°02' E 013°29'812.7
2017-May-21 04:23N 44°07' E 013°20'512.8
2017-May-21 04:00N 44°10' E 013°15'612.9
2017-May-21 03:30N 44°14' E 013°07'712.8
2017-May-21 02:59N 44°17' E 012°59'912.7
2017-May-21 02:15N 44°22' E 012°49'312.6
2017-May-21 01:58N 44°24' E 012°44'612.4
2017-May-21 01:30N 44°27' E 012°37'612.4
2017-May-21 01:00N 44°29' E 012°29'3 0.3
2017-May-20 13:23N 44°31' E 012°32'512.8
2017-May-20 13:00N 44°35' E 012°34'612.9
2017-May-20 12:30N 44°42' E 012°36'612.7
2017-May-20 12:00N 44°48' E 012°39'612.3
2017-May-20 11:30N 44°54' E 012°40'612.3
2017-May-20 11:00N 44°60' E 012°40'612.5
2017-May-20 10:30N 45°06' E 012°40'611.5
2017-May-20 10:00N 45°10' E 012°34'612.0
2017-May-20 09:30N 45°15' E 012°29'612.5
2017-May-20 09:00N 45°19' E 012°23'510.4
2017-May-20 08:30N 45°21' E 012°16'4 8.9
2017-May-20 08:00N 45°25' E 012°16'2 1.9
2017-May-20 07:11N 45°26' E 012°14'0 0.0
2017-May-20 06:56N 45°26' E 012°14'0 0.0
2017-May-20 06:26N 45°26' E 012°14'0 0.0
2017-May-20 05:59N 45°26' E 012°14'0 0.0
2017-May-20 05:29N 45°26' E 012°14'0 0.0
2017-May-20 04:59N 45°26' E 012°14'0 0.0
2017-May-20 04:29N 45°26' E 012°14'0 0.0
2017-May-20 03:56N 45°26' E 012°14'0 0.0
2017-May-20 03:29N 45°26' E 012°14'0 0.0
2017-May-20 02:53N 45°26' E 012°14'0 0.0
2017-May-20 02:29N 45°26' E 012°14'0 0.0
2017-May-20 01:59N 45°26' E 012°14'0 0.0
2017-May-20 01:29N 45°26' E 012°14'0 0.0
2017-May-20 00:53N 45°26' E 012°14'0 0.0
2017-May-20 00:29N 45°26' E 012°14'0 0.0
2017-May-19 23:59N 45°26' E 012°14'0 0.0
2017-May-19 23:29N 45°26' E 012°14'0 0.0
2017-May-19 22:56N 45°26' E 012°14'0 0.0
2017-May-19 22:29N 45°26' E 012°14'0 0.0
2017-May-19 21:59N 45°26' E 012°14'0 0.0
2017-May-19 21:20N 45°26' E 012°14'0 0.0
2017-May-19 20:56N 45°26' E 012°14'0 0.0
2017-May-19 20:29N 45°26' E 012°14'0 0.0
2017-May-19 19:56N 45°26' E 012°14'0 0.0
2017-May-19 19:26N 45°26' E 012°14'0 0.0
2017-May-19 18:59N 45°26' E 012°14'0 0.0
2017-May-19 18:29N 45°26' E 012°14'0 0.0
2017-May-19 17:59N 45°26' E 012°14'0 0.0
2017-May-19 17:29N 45°26' E 012°14'0 0.0
2017-May-19 16:59N 45°26' E 012°14'0 0.0
2017-May-19 16:23N 45°26' E 012°14'0 0.7
2017-May-19 16:00N 45°26' E 012°13'2 3.1
2017-May-19 15:31N 45°26' E 012°16'1 2.3
2017-May-19 14:58N 45°27' E 012°16'0 0.0
2017-May-19 13:58N 45°27' E 012°16'0 0.0
2017-May-19 13:25N 45°27' E 012°16'0 0.0
2017-May-19 12:49N 45°27' E 012°16'0 0.0
2017-May-19 12:28N 45°27' E 012°16'0 0.0
2017-May-19 11:58N 45°27' E 012°16'0 0.0
2017-May-19 11:28N 45°27' E 012°16'0 0.0
2017-May-19 10:55N 45°27' E 012°16'0 0.0
2017-May-19 10:28N 45°27' E 012°16'0 0.0
2017-May-19 09:58N 45°27' E 012°16'0 0.0
2017-May-19 09:25N 45°27' E 012°16'0 0.0
2017-May-19 08:58N 45°27' E 012°16'0 0.0
2017-May-19 08:28N 45°27' E 012°16'0 0.0
2017-May-19 07:58N 45°27' E 012°16'0 0.0
2017-May-19 07:28N 45°27' E 012°16'0 0.0
2017-May-19 06:58N 45°27' E 012°16'0 0.0
2017-May-19 06:25N 45°27' E 012°16'0 0.0
2017-May-19 05:58N 45°27' E 012°16'0 0.0
2017-May-19 05:25N 45°27' E 012°16'0 0.0
2017-May-19 04:58N 45°27' E 012°16'0 0.0
2017-May-19 04:25N 45°27' E 012°16'0 0.0
2017-May-19 03:58N 45°27' E 012°16'0 0.0
2017-May-19 03:28N 45°27' E 012°16'0 0.0
2017-May-19 02:58N 45°27' E 012°16'0 0.0
2017-May-19 02:28N 45°27' E 012°16'0 0.0
2017-May-19 01:52N 45°27' E 012°16'0 0.0
2017-May-19 01:25N 45°27' E 012°16'0 0.0
2017-May-19 00:58N 45°27' E 012°16'0 0.0
2017-May-19 00:28N 45°27' E 012°16'0 0.0
2017-May-18 23:58N 45°27' E 012°16'0 0.0
2017-May-18 23:28N 45°27' E 012°16'0 0.0
2017-May-18 22:58N 45°27' E 012°16'0 0.0
2017-May-18 22:28N 45°27' E 012°16'0 0.0
2017-May-18 21:58N 45°27' E 012°16'0 0.0
2017-May-18 21:28N 45°27' E 012°16'0 0.0
2017-May-18 20:58N 45°27' E 012°16'0 0.0
2017-May-18 20:28N 45°27' E 012°16'0 0.0
2017-May-18 19:58N 45°27' E 012°16'0 0.0
2017-May-18 19:28N 45°27' E 012°16'0 0.0
2017-May-18 18:55N 45°27' E 012°16'0 0.0
2017-May-18 18:28N 45°27' E 012°16'0 0.0
2017-May-18 17:55N 45°27' E 012°16'0 0.0
2017-May-18 17:28N 45°27' E 012°16'0 0.0
2017-May-18 16:55N 45°27' E 012°16'0 0.0
2017-May-18 16:25N 45°27' E 012°16'0 0.0
2017-May-18 15:58N 45°27' E 012°16'0 0.0
2017-May-18 15:22N 45°27' E 012°16'0 0.0
2017-May-18 14:58N 45°27' E 012°16'0 0.0
2017-May-18 13:58N 45°27' E 012°16'0 0.0
2017-May-18 13:28N 45°27' E 012°16'0 0.0
2017-May-18 12:58N 45°27' E 012°16'0 0.0
2017-May-18 12:28N 45°27' E 012°16'0 0.0
2017-May-18 11:58N 45°27' E 012°16'0 0.0
2017-May-18 11:28N 45°27' E 012°16'0 0.0
2017-May-18 10:58N 45°27' E 012°16'0 0.0
2017-May-18 10:25N 45°27' E 012°16'0 0.0
2017-May-18 09:58N 45°27' E 012°16'0 0.0
2017-May-18 09:28N 45°27' E 012°16'0 0.0
2017-May-18 08:58N 45°27' E 012°16'0 0.0
2017-May-18 08:25N 45°27' E 012°16'0 0.0
2017-May-18 07:55N 45°27' E 012°16'0 0.0
2017-May-18 07:28N 45°27' E 012°16'0 0.0
2017-May-18 06:58N 45°27' E 012°16'0 0.0
2017-May-18 06:10N 45°27' E 012°16'0 0.0
2017-May-18 05:58N 45°27' E 012°16'0 0.0
2017-May-18 05:25N 45°27' E 012°16'0 0.0
2017-May-18 04:55N 45°27' E 012°16'0 0.0
2017-May-18 04:28N 45°27' E 012°16'0 0.0
2017-May-18 03:55N 45°27' E 012°16'0 0.0
2017-May-18 03:28N 45°27' E 012°16'0 0.0
2017-May-18 02:58N 45°27' E 012°16'0 0.0
2017-May-18 02:28N 45°27' E 012°16'0 0.0
2017-May-18 01:58N 45°27' E 012°16'0 0.0
2017-May-18 01:28N 45°27' E 012°16'0 0.0
2017-May-18 00:58N 45°27' E 012°16'0 0.0
2017-May-18 00:25N 45°27' E 012°16'0 0.0
2017-May-17 23:58N 45°27' E 012°16'0 0.0
2017-May-17 23:28N 45°27' E 012°16'0 0.0
2017-May-17 22:58N 45°27' E 012°16'0 0.0
2017-May-17 22:28N 45°27' E 012°16'0 0.0
2017-May-17 21:58N 45°27' E 012°16'0 0.0
2017-May-17 21:28N 45°27' E 012°16'0 0.0
2017-May-17 20:58N 45°27' E 012°16'0 0.0
2017-May-17 20:28N 45°27' E 012°16'0 0.0
2017-May-17 19:58N 45°27' E 012°16'0 0.0
2017-May-17 19:28N 45°27' E 012°16'0 0.0
2017-May-17 18:58N 45°27' E 012°16'0 0.0
2017-May-17 18:25N 45°27' E 012°16'0 0.0
2017-May-17 17:58N 45°27' E 012°16'0 0.0
2017-May-17 17:28N 45°27' E 012°16'0 0.0
2017-May-17 16:55N 45°27' E 012°16'0 0.0
2017-May-17 16:28N 45°27' E 012°16'0 0.0
2017-May-17 15:58N 45°27' E 012°16'0 0.0
2017-May-17 15:28N 45°27' E 012°16'0 0.0
2017-May-17 14:58N 45°27' E 012°16'4 4.0
2017-May-17 14:00N 45°24' E 012°16'4 7.9
2017-May-17 13:30N 45°20' E 012°19'3 6.4
2017-May-17 13:00N 45°20' E 012°23'1 1.3
2017-May-17 12:30N 45°20' E 012°24'0 0.1
2017-May-17 12:00N 45°20' E 012°24'0 0.0
2017-May-17 11:30N 45°20' E 012°24'0 0.0
2017-May-17 11:00N 45°20' E 012°24'0 0.0
2017-May-17 10:30N 45°20' E 012°24'0 0.0
2017-May-17 10:00N 45°20' E 012°24'0 0.0
2017-May-17 09:30N 45°20' E 012°24'0 0.0
2017-May-17 09:00N 45°20' E 012°24'0 0.0
2017-May-17 08:30N 45°20' E 012°24'0 0.0
2017-May-17 08:00N 45°20' E 012°24'0 0.0
2017-May-17 07:30N 45°20' E 012°24'0 0.0
2017-May-17 07:00N 45°20' E 012°24'0 0.0
2017-May-17 06:30N 45°20' E 012°24'0 0.2
2017-May-17 06:00N 45°20' E 012°24'0 0.1
2017-May-17 05:30N 45°20' E 012°24'0 0.1
2017-May-17 05:00N 45°20' E 012°24'0 0.1
2017-May-17 04:30N 45°20' E 012°24'0 0.0
2017-May-17 04:00N 45°20' E 012°24'0 0.0
2017-May-17 03:30N 45°20' E 012°24'0 0.0
2017-May-17 03:00N 45°20' E 012°24'0 0.0
2017-May-17 02:30N 45°20' E 012°24'0 0.0
2017-May-17 02:01N 45°20' E 012°24'0 0.0
2017-May-17 01:30N 45°20' E 012°24'0 0.0
2017-May-17 01:00N 45°20' E 012°24'0 0.0
2017-May-17 00:30N 45°20' E 012°24'0 0.0
2017-May-17 00:00N 45°20' E 012°24'0 0.0
2017-May-16 23:30N 45°20' E 012°24'0 0.1
2017-May-16 23:00N 45°20' E 012°24'0 0.1
2017-May-16 22:30N 45°20' E 012°24'0 0.0
2017-May-16 22:00N 45°20' E 012°24'0 0.0
2017-May-16 21:31N 45°20' E 012°24'0 0.0
2017-May-16 21:00N 45°20' E 012°24'0 0.0
2017-May-16 20:30N 45°20' E 012°24'0 0.0
2017-May-16 20:00N 45°20' E 012°24'0 0.0
2017-May-16 19:30N 45°20' E 012°24'0 0.0
2017-May-16 19:01N 45°20' E 012°24'0 0.0
2017-May-16 18:30N 45°20' E 012°24'0 0.0
2017-May-16 18:00N 45°20' E 012°24'0 0.1
2017-May-16 17:31N 45°20' E 012°24'0 0.0
2017-May-16 17:00N 45°20' E 012°24'0 0.0
2017-May-16 16:30N 45°20' E 012°24'0 0.0
2017-May-16 16:00N 45°20' E 012°24'0 0.0
2017-May-16 15:30N 45°20' E 012°24'0 0.1
2017-May-16 15:00N 45°20' E 012°24'0 0.0
2017-May-16 14:30N 45°20' E 012°24'0 0.0
2017-May-16 13:30N 45°20' E 012°24'0 0.1
2017-May-16 13:00N 45°20' E 012°24'0 0.0
2017-May-16 12:30N 45°20' E 012°24'0 0.0
2017-May-16 12:00N 45°20' E 012°24'0 0.0
2017-May-16 11:30N 45°20' E 012°24'0 0.0
2017-May-16 11:00N 45°20' E 012°24'0 0.0
2017-May-16 10:30N 45°20' E 012°24'0 0.0
2017-May-16 10:00N 45°20' E 012°24'0 0.1
2017-May-16 09:30N 45°20' E 012°24'0 0.0
2017-May-16 09:00N 45°20' E 012°24'0 0.0
2017-May-16 08:30N 45°20' E 012°24'0 0.0
2017-May-16 08:00N 45°20' E 012°24'0 0.0
2017-May-16 07:30N 45°20' E 012°24'0 0.0
2017-May-16 07:00N 45°20' E 012°24'0 0.0
2017-May-16 06:30N 45°20' E 012°24'0 0.0
2017-May-16 06:00N 45°20' E 012°24'0 0.0
2017-May-16 05:30N 45°20' E 012°24'0 0.0
2017-May-16 05:00N 45°20' E 012°24'0 0.0
2017-May-16 04:30N 45°20' E 012°24'0 0.0
2017-May-16 04:00N 45°20' E 012°24'0 0.0
2017-May-16 03:30N 45°20' E 012°24'0 0.0
2017-May-16 03:00N 45°20' E 012°24'0 0.1
2017-May-16 02:30N 45°20' E 012°24'0 0.0
2017-May-16 02:01N 45°20' E 012°24'0 0.0
2017-May-16 01:30N 45°20' E 012°24'0 0.0
2017-May-16 01:00N 45°20' E 012°24'0 0.0
2017-May-16 00:30N 45°20' E 012°24'0 0.0
2017-May-16 00:00N 45°20' E 012°24'0 0.1
2017-May-15 23:30N 45°20' E 012°24'0 0.0
2017-May-15 23:00N 45°20' E 012°24'0 0.0
2017-May-15 22:30N 45°20' E 012°24'0 0.0
2017-May-15 22:00N 45°20' E 012°24'0 0.0
2017-May-15 21:30N 45°20' E 012°24'0 0.0
2017-May-15 21:00N 45°20' E 012°24'0 0.0
2017-May-15 20:30N 45°20' E 012°24'0 0.0
2017-May-15 20:00N 45°20' E 012°24'0 0.0
2017-May-15 19:30N 45°20' E 012°24'0 0.0
2017-May-15 19:01N 45°20' E 012°24'0 0.0
2017-May-15 18:30N 45°20' E 012°24'0 0.0
2017-May-15 18:00N 45°20' E 012°24'0 0.1
2017-May-15 17:30N 45°20' E 012°24'0 0.0
2017-May-15 17:00N 45°20' E 012°24'0 0.0
2017-May-15 16:30N 45°20' E 012°24'0 0.0
2017-May-15 16:00N 45°20' E 012°24'0 0.0
2017-May-15 15:30N 45°20' E 012°24'0 0.1
2017-May-15 15:00N 45°20' E 012°24'0 0.1
2017-May-15 14:00N 45°20' E 012°24'0 0.0
2017-May-15 13:30N 45°20' E 012°24'0 0.0
2017-May-15 13:00N 45°20' E 012°24'0 0.0
2017-May-15 12:30N 45°20' E 012°24'0 0.0
2017-May-15 12:00N 45°20' E 012°24'0 0.0
2017-May-15 11:30N 45°20' E 012°24'0 0.0
2017-May-15 11:00N 45°20' E 012°24'0 0.0
2017-May-15 10:30N 45°20' E 012°24'0 0.0
2017-May-15 10:00N 45°20' E 012°24'0 0.0
2017-May-15 09:30N 45°20' E 012°24'0 0.0
2017-May-15 09:00N 45°20' E 012°24'0 0.0
2017-May-15 08:30N 45°20' E 012°24'0 0.0
2017-May-15 08:00N 45°20' E 012°24'0 0.0
2017-May-15 07:30N 45°20' E 012°24'0 0.0
2017-May-15 07:00N 45°20' E 012°24'0 0.1
2017-May-15 06:30N 45°20' E 012°24'0 0.0
2017-May-15 06:00N 45°20' E 012°24'0 0.0
2017-May-15 05:29N 45°20' E 012°24'0 0.1
2017-May-15 05:00N 45°20' E 012°24'0 0.1
2017-May-15 04:30N 45°20' E 012°24'0 0.0
2017-May-15 04:00N 45°20' E 012°24'0 0.0
2017-May-15 03:30N 45°20' E 012°24'0 0.0
2017-May-15 02:50N 45°20' E 012°24'0 0.0
2017-May-15 02:30N 45°20' E 012°24'0 0.0
2017-May-15 02:00N 45°20' E 012°24'0 0.0
2017-May-15 01:30N 45°20' E 012°24'0 0.0
2017-May-15 01:00N 45°20' E 012°24'0 0.0
2017-May-15 00:30N 45°20' E 012°24'0 0.0
2017-May-15 00:00N 45°20' E 012°24'0 0.1
2017-May-14 23:30N 45°20' E 012°24'0 0.1
2017-May-14 23:00N 45°20' E 012°24'0 0.0
2017-May-14 22:30N 45°20' E 012°24'0 0.0
2017-May-14 22:00N 45°20' E 012°24'1 1.4
2017-May-14 21:30N 45°20' E 012°25'611.2
2017-May-14 21:00N 45°16' E 012°32'612.8
2017-May-14 20:30N 45°12' E 012°39'612.7
2017-May-14 20:00N 45°08' E 012°46'612.8
2017-May-14 19:30N 45°03' E 012°50'713.1
2017-May-14 19:00N 44°56' E 012°51'612.4
2017-May-14 18:31N 44°50' E 012°49'612.8
2017-May-14 18:00N 44°45' E 012°44'612.9
2017-May-14 17:31N 44°39' E 012°39'1212.8
2017-May-14 16:34N 44°30' E 012°29'312.5
2017-May-14 16:20N 44°30' E 012°25'411.7
2017-May-14 15:59N 44°30' E 012°19'  

Dump ship's entire track history